Bekir Hacibekiroglu — TCSY2 — position and weather

sailwx.info

Track history (hours):
 
Tides and Currents Weather Stations Pressure Air Temp Water Temp Dewpoint Dewpoint Depression Visibility Wind Speed Wind Dir Waves Ship Positions

Bekir Hacibekiroglu

Last reported at 2014-Oct-28 11:33 UTC. Time now 2014-Oct-31 11:29 UTC.
Position N 36°47' E 026°32'.

Length 83 m; draft 5.1 m.

Type: Cargo ship. MMSI: 271002635.

Date/timePositionNaut miles runAvg speedWind from/ knotsBaromVisibWave heightAir tempDewpointWater temp
2014-Oct-28 11:33N 36°47' E 026°32'1010.0
2014-Oct-28 10:32N 36°52' E 026°21'1010.2
2014-Oct-28 09:31N 36°58' E 026°10'1010.4
2014-Oct-28 08:33N 37°04' E 026°01'1010.1
2014-Oct-28 07:33N 37°11' E 025°51'10 9.7
2014-Oct-28 06:33N 37°14' E 025°39'9 9.3
2014-Oct-28 05:33N 37°17' E 025°28'9 9.6
2014-Oct-28 04:33N 37°20' E 025°17'10 9.7
2014-Oct-28 03:32N 37°23' E 025°05'5 4.5
2014-Oct-28 02:23N 37°25' E 024°59'0 0.0
2014-Oct-28 01:29N 37°25' E 024°59'0 0.0
2014-Oct-28 00:26N 37°25' E 024°59'5 5.6
2014-Oct-27 23:29N 37°30' E 024°58'9 9.8
2014-Oct-27 22:32N 37°38' E 024°51'12 9.7
2014-Oct-27 21:20N 37°47' E 024°42'  
2014-Oct-20 09:26N 38°22' E 025°20'8 8.9
2014-Oct-20 08:33N 38°19' E 025°29'9 9.3
2014-Oct-20 07:33N 38°14' E 025°39'  
Track history (hours):
 
Tides and Currents Weather Stations Pressure Air Temp Water Temp Dewpoint Dewpoint Depression Visibility Wind Speed Wind Dir Waves Ship Positions

Bekir Hacibekiroglu

Last reported at 2014-Oct-28 11:33 UTC. Time now 2014-Oct-31 11:29 UTC.
Position N 36°47' E 026°32'.

Length 83 m; draft 5.1 m.

Type: Cargo ship. MMSI: 271002635.

Date/timePositionNaut miles runAvg speedWind from/ knotsBaromVisibWave heightAir tempDewpointWater temp
2014-Oct-28 11:33N 36°47' E 026°32'1010.0
2014-Oct-28 10:32N 36°52' E 026°21'1010.2
2014-Oct-28 09:31N 36°58' E 026°10'1010.4
2014-Oct-28 08:33N 37°04' E 026°01'1010.1
2014-Oct-28 07:33N 37°11' E 025°51'10 9.7
2014-Oct-28 06:33N 37°14' E 025°39'9 9.3
2014-Oct-28 05:33N 37°17' E 025°28'9 9.6
2014-Oct-28 04:33N 37°20' E 025°17'10 9.7
2014-Oct-28 03:32N 37°23' E 025°05'5 4.5
2014-Oct-28 02:23N 37°25' E 024°59'0 0.0
2014-Oct-28 01:29N 37°25' E 024°59'0 0.0
2014-Oct-28 00:26N 37°25' E 024°59'5 5.6
2014-Oct-27 23:29N 37°30' E 024°58'9 9.8
2014-Oct-27 22:32N 37°38' E 024°51'12 9.7
2014-Oct-27 21:20N 37°47' E 024°42'  
2014-Oct-20 09:26N 38°22' E 025°20'8 8.9
2014-Oct-20 08:33N 38°19' E 025°29'9 9.3
2014-Oct-20 07:33N 38°14' E 025°39'  

Dump ship's entire track history